Tiempo atmosférico en la estación meteorológica de Cillórigo de Liébana, Tama, Cantabria (250 m.)



Fecha
DESCASC
Temp. máxima en grados centígrados (hora)
DESCASC
Temp. mínima en grados centígrados (hora)
DESCASC
Temp. media en grados centígrados
DESCASC
Racha de viento máxima en m/sg (hora)
DESCASC
Velocidad máxima media en intervalos de 10 minutos(hora)
DESCASC
Precipitaciones diarias en mm
DESCASC
Precipitaciones de 00:00 a 06:00 en mm
DESCASC
Precipitaciones de 06:00 a 12:00 en mm
DESCASC
Precipitaciones de 12:00 a 18:00 en mm
DESCASC
Precipitaciones de 18:00 a 24:00 en mm
DESCASC
18-08-2019 24.4 (12:40) 14 (06:40) 19.2 11.94 (14:00) 6.39 (13:30) 9.8 0 0 9.8 0
17-08-2019 28.9 (14:40) 13.1 (07:20) 21 11.39 (17:00) 5.83 (16:00) 0 0 0 0 0
16-08-2019 29.8 (15:50) 16.3 (08:20) 23 11.11 (17:30) 5.83 (17:00) 0 0 0 0 0
15-08-2019 22.9 (14:10) 15.8 (00:00) 19.3 12.5 (16:00) 6.94 (15:10) 0 0 0 0 0
14-08-2019 27.5 (15:10) 10.9 (00:00) 19.2 12.22 (17:30) 5.83 (17:20) 0 0 0 0 0
13-08-2019 23.3 (15:50) 9.3 (00:00) 16.3 11.11 (17:10) 5.56 (17:30) 0 0 0 0 0
12-08-2019 21.1 (14:10) 10.4 (00:00) 15.8 11.94 (15:40) 5.56 (17:20) 0.4 0 0 0.4 0
11-08-2019 20.9 (12:40) 13.7 (00:00) 17.3 8.89 (17:30) 4.44 (16:20) 2.8 0.8 0 0.8 1.2
10-08-2019 22.6 (13:30) 17.6 (00:00) 20.1 12.22 (16:50) 6.67 (13:40) 0 0 0 0 0
09-08-2019 29.8 (00:00) 21.9 (00:00) 25.8 11.67 (12:00) 6.11 (12:10) 0 0 0 0 0
08-08-2019 33 (18:00) 17.1 (00:00) 25.1 11.67 (23:00) 5.56 (10:10) 0 0 0 0 0
07-08-2019 28.2 (15:30) 16 (00:00) 22.1 8.33 (15:30) 3.89 (15:30) 0 0 0 0 0
06-08-2019 26.8 (14:50) 14.8 (00:00) 20.8 11.67 (20:00) 5.28 (18:20) 0 0 0 0 0
05-08-2019 26.8 (17:10) 16.2 (00:00) 21.5 11.67 (18:20) 6.39 (15:40) 0 0 0 0 0
04-08-2019 24 (14:20) 17.9 (00:00) 20.9 9.72 (18:20) 5.28 (18:00) 0 0 0 0 0
03-08-2019 28.1 (16:00) 14.3 (00:00) 21.2 12.78 (15:00) 6.94 (15:00) 0 0 0 0 0
02-08-2019 26.2 (16:00) 14.8 (00:00) 20.5 9.44 (19:20) 4.72 (16:50) 0 0 0 0 0
01-08-2019 24.5 (16:40) 16.4 (00:00) 20.4 10.28 (19:50) 5 (19:30) 0 0 0 0 0
31-07-2019 22.6 (15:00) 13.6 (00:00) 18.1 10.83 (19:00) 4.44 (18:40) 0 0 0 0 0
30-07-2019 21.7 (13:10) 12.4 (00:00) 17.1 11.39 (18:30) 5 (18:00) 0 0 0 0 0
29-07-2019 22.9 (14:00) 13 (00:00) 17.9 13.33 (15:30) 7.5 (15:20) 0 0 0 0 0
28-07-2019 23.6 (16:20) 10.8 (00:00) 17.2 9.72 (19:20) 5 (15:10) 0 0 0 0 0
27-07-2019 19.6 (17:00) 14.6 (00:00) 17.1 10.56 (21:20) 5.28 (21:30) 10 2.6 7 0.4 0
26-07-2019 21.2 (00:00) 16.7 (00:00) 19 8.89 (06:50) 4.44 (08:00) 16.2 0.4 15 0.4 0.4
25-07-2019 30.1 (13:00) 18.7 (00:00) 24.4 15.28 (18:00) 7.22 (16:30) 0 0 0 0 0
24-07-2019 38.3 (17:10) 17 (00:00) 27.6 9.17 (16:20) 4.72 (19:40) 0 0 0 0 0
23-07-2019 37.1 (16:10) 16.9 (00:00) 27 18.89 (20:10) 6.67 (19:10) 1.4 0 0 0 1.4
22-07-2019 28.8 (15:10) 19.3 (00:00) 24 7.5 (14:20) 3.89 (14:20) 1.6 0 0 0 1.6
21-07-2019 25.8 (15:00) 17.8 (00:00) 21.8 10.56 (16:10) 6.11 (16:20) 0 0 0 0 0

Gráficas

Temp. máximas Temp. mínimas Temp. medias Precipitaciones Rachas de viento máximas Velocidades máximas media en intervalos de 10 minutos

Datos horarios

Fecha y hora oficial Temperatura (ºC) Velocidad del viento (km/h) Dirección del viento Racha (km/h) Dirección de racha Precipitación (mm) Presión (hPa) Tendencia (hPa) Humedad (%)
2019-08-19 23:00:00 16.5 3 Sur 12 Norte 0 -- -- 78
2019-08-19 22:00:00 16.7 4 Norte 22 Norte 0 -- -- 74
2019-08-19 21:00:00 16.5 10 Noroeste 26 Norte 0 -- -- 74
2019-08-19 20:00:00 16.8 12 Norte 28 Norte 0 -- -- 78
2019-08-19 19:00:00 18.1 12 Norte 28 Noroeste 0 -- -- 68
2019-08-19 18:00:00 18.3 12 Norte 23 Norte 0 -- -- 71
2019-08-19 17:00:00 19 12 Norte 30 Noroeste 0 -- -- 67
2019-08-19 16:00:00 19.3 12 Noroeste 35 Noroeste 0 -- -- 67
2019-08-19 15:00:00 19.4 14 Norte 31 Norte 0 -- -- 65
2019-08-19 14:00:00 19.3 8 Norte 19 Noroeste 0 -- -- 64
2019-08-19 13:00:00 19 5 Nordeste 13 Nordeste 0 -- -- 65
2019-08-19 12:00:00 17.7 5 Noroeste 12 Noroeste 0 -- -- 70
2019-08-19 11:00:00 16.6 5 Norte 14 Norte 0 -- -- 77
2019-08-19 10:00:00 15.4 2 Norte 6 Noroeste 0 -- -- 84
2019-08-19 09:00:00 15 3 Norte 5 Nordeste 0 -- -- 87
2019-08-19 08:00:00 14.6 0 Calma 5 Sudoeste 0 -- -- 89
2019-08-19 07:00:00 14.7 0 Calma 8 Sudeste 0 -- -- 89
2019-08-19 06:00:00 15.2 6 Sur 12 Sur 0 -- -- 85
2019-08-19 05:00:00 15.6 5 Sur 10 Sur 0 -- -- 85
2019-08-19 04:00:00 15.9 4 Noroeste 17 Norte 0 -- -- 77
2019-08-19 03:00:00 15.6 3 Este 6 Sur 0 -- -- 88
2019-08-19 02:00:00 15.8 3 Sudeste 12 Sudeste 0 -- -- 86
2019-08-19 01:00:00 16.1 6 Sur 18 Noroeste 0 -- -- 84
2019-08-19 00:00:00 16.3 9 Noroeste 24 Norte 0 -- -- 79
2019-08-18 23:00:00 16.6 8 Norte 24 Noroeste 0 -- -- 81
2019-08-18 22:00:00 17.3 8 Noroeste 23 Noroeste 0 -- -- 76
2019-08-18 21:00:00 17.7 11 Norte 32 Este 0 -- -- 74
2019-08-18 20:00:00 17.7 15 Noroeste 33 Noroeste 0 -- -- 76
2019-08-18 19:00:00 17.5 19 Norte 35 Noroeste 0 -- -- 82
2019-08-18 18:00:00 18.2 3 Sur 13 Sudeste 3.6 -- -- 91
2019-08-18 17:00:00 18.4 5 Sudoeste 16 Sudeste 1 -- -- 89
2019-08-18 16:00:00 17.9 4 Norte 37 Este 5.2 -- -- 87
2019-08-18 15:00:00 19.7 19 Norte 40 Norte 0 -- -- 72
2019-08-18 14:00:00 20.9 22 Norte 43 Norte 0 -- -- 73
2019-08-18 13:00:00 24.1 13 Norte 25 Noroeste 0 -- -- 66
2019-08-18 12:00:00 22.2 4 Oeste 8 Noroeste 0 -- -- 74
2019-08-18 11:00:00 19.4 3 Noroeste 6 Noroeste 0 -- -- 81
2019-08-18 10:00:00 17.6 3 Nordeste 5 Este 0 -- -- 89
2019-08-18 09:00:00 15.3 0 Calma 4 Este 0 -- -- 94
2019-08-18 08:00:00 14.6 0 Calma 6 Sudoeste 0 -- -- 96
2019-08-18 07:00:00 14.2 0 Calma 4 Nordeste 0 -- -- 96
2019-08-18 06:00:00 14.4 0 Calma 4 Sur 0 -- -- 94
2019-08-18 05:00:00 15 0 Calma 5 Oeste 0 -- -- 93
2019-08-18 04:00:00 15.8 2 Noroeste 7 Oeste 0 -- -- 93
2019-08-18 03:00:00 16.6 0 Calma 5 Oeste 0 -- -- 92
2019-08-18 02:00:00 17.3 0 Calma 5 Sur 0 -- -- 90
2019-08-18 01:00:00 18.7 0 Calma 3 Oeste 0 -- -- 86
2019-08-18 00:00:00 20.1 0 Calma 6 Sudoeste 0 -- -- 82
2019-08-17 23:00:00 21.2 0 Calma 5 Oeste 0 -- -- 78
2019-08-17 22:00:00 22.8 0 Calma 6 Noroeste 0 -- -- 72
2019-08-17 21:00:00 24.7 5 Norte 21 Noroeste 0 -- -- 65
2019-08-17 20:00:00 26.9 6 Noroeste 28 Noroeste 0 -- -- 57
2019-08-17 19:00:00 27.4 12 Noroeste 38 Norte 0 -- -- 56
2019-08-17 18:00:00 27.8 14 Norte 39 Norte 0 -- -- 55
2019-08-17 17:00:00 28.3 17 Noroeste 41 Noroeste 0 -- -- 52
2019-08-17 16:00:00 28.4 21 Norte 40 Norte 0 -- -- 52
2019-08-17 15:00:00 28.6 18 Norte 36 Norte 0 -- -- 52
2019-08-17 14:00:00 28.5 14 Norte 31 Noroeste 0 -- -- 52
2019-08-17 13:00:00 28.3 6 Norte 19 Norte 0 -- -- 51
2019-08-17 12:00:00 25.5 3 Noroeste 6 Noroeste 0 -- -- 58
2019-08-17 11:00:00 21.8 0 Calma 4 Sudeste 0 -- -- 69
2019-08-17 10:00:00 17.6 0 Calma 3 Oeste 0 -- -- 85
2019-08-17 09:00:00 13.6 0 Calma 3 Sudeste 0 -- -- 96
2019-08-17 08:00:00 13.1 0 Calma 2 Noroeste 0 -- -- 95
2019-08-17 07:00:00 13.4 0 Calma 3 Sudoeste 0 -- -- 94
2019-08-17 06:00:00 13.9 0 Calma 5 Sudoeste 0 -- -- 93
2019-08-17 05:00:00 14.5 0 Calma 5 Oeste 0 -- -- 93
2019-08-17 04:00:00 15.4 0 Calma 5 Sudoeste 0 -- -- 90
2019-08-17 03:00:00 15.9 0 Calma 13 Sudeste 0 -- -- 89
2019-08-17 02:00:00 16.8 0 Calma 5 Sudoeste 0 -- -- 87
2019-08-17 01:00:00 17.7 0 Calma 4 Sudoeste 0 -- -- 83
2019-08-17 00:00:00 19 0 Calma 8 Nordeste 0 -- -- 79
2019-08-16 23:00:00 20.9 3 Noroeste 14 Norte 0 -- -- 72
2019-08-16 22:00:00 22.6 6 Norte 23 Norte 0 -- -- 65
2019-08-16 21:00:00 24.1 8 Norte 25 Noroeste 0 -- -- 60
2019-08-16 20:00:00 25.9 9 Noroeste 32 Norte 0 -- -- 56
2019-08-16 19:00:00 27.5 13 Norte 36 Norte 0 -- -- 52
2019-08-16 18:00:00 28.6 13 Norte 40 Norte 0 -- -- 49
2019-08-16 17:00:00 29 21 Norte 36 Norte 0 -- -- 45
2019-08-16 16:00:00 29.8 10 Norte 32 Norte 0 -- -- 44
2019-08-16 15:00:00 29.5 12 Norte 32 Norte 0 -- -- 41
2019-08-16 14:00:00 28.1 19 Norte 37 Norte 0 -- -- 41
2019-08-16 13:00:00 26.6 6 Sur 23 Noroeste 0 -- -- 50
2019-08-16 12:00:00 23.2 4 Norte 8 Noroeste 0 -- -- 60
2019-08-16 11:00:00 20.3 2 Norte 7 Sudeste 0 -- -- 69
2019-08-16 10:00:00 17.2 3 Sur 8 Sur 0 -- -- 81
2019-08-16 09:00:00 16.4 3 Sudoeste 11 Oeste 0 -- -- 84
2019-08-16 08:00:00 16.4 2 Sur 7 Sudoeste 0 -- -- 84
2019-08-16 07:00:00 16.7 4 Sudoeste 8 Sudoeste 0 -- -- 84
2019-08-16 06:00:00 17.2 2 Este 10 Sur 0 -- -- 82
2019-08-16 05:00:00 17.2 3 Sur 10 Sur 0 -- -- 82
2019-08-16 04:00:00 17.4 5 Sudeste 9 Sudeste 0 -- -- 83
2019-08-16 03:00:00 17.2 0 Calma 4 Sudoeste 0 -- -- 85
2019-08-16 02:00:00 17.1 0 Calma 3 Noroeste 0 -- -- 85
2019-08-16 01:00:00 17.1 2 Noroeste 10 Sudeste 0 -- -- 84
2019-08-16 00:00:00 17.4 5 Sudeste 9 Sur 0 -- -- 81
2019-08-15 23:00:00 18.1 6 Norte 19 Norte 0 -- -- 79
2019-08-15 22:00:00 18.4 10 Noroeste 29 Norte 0 -- -- 78
2019-08-15 21:00:00 19 7 Noroeste 15 Noroeste 0 -- -- 75
2019-08-15 20:00:00 20.6 8 Noroeste 22 Noroeste 0 -- -- 69
2019-08-15 19:00:00 21 11 Norte 31 Norte 0 -- -- 66
2019-08-15 18:00:00 21.1 13 Norte 42 Noroeste 0 -- -- 68
2019-08-15 17:00:00 21.4 20 Noroeste 41 Noroeste 0 -- -- 67
2019-08-15 16:00:00 22 17 Noroeste 45 Noroeste 0 -- -- 65
2019-08-15 15:00:00 22.2 22 Norte 39 Norte 0 -- -- 63
2019-08-15 14:00:00 22.8 13 Norte 33 Norte 0 -- -- 59
2019-08-15 13:00:00 22.4 15 Norte 34 Norte 0 -- -- 62
2019-08-15 12:00:00 21.8 13 Norte 21 Norte 0 -- -- 64
2019-08-15 11:00:00 21 12 Norte 24 Norte 0 -- -- 69
2019-08-15 10:00:00 20 6 Norte 16 Noroeste 0 -- -- 75
2019-08-15 09:00:00 17.4 0 Calma 5 Sur 0 -- -- 88
2019-08-15 08:00:00 16.1 0 Calma 3 Norte 0 -- -- 92
2019-08-15 07:00:00 15.9 0 Calma 0 Calma 0 -- -- 92
2019-08-15 06:00:00 16.1 0 Calma 3 Sur 0 -- -- 91
2019-08-15 05:00:00 16.9 0 Calma 4 Noroeste 0 -- -- 89
2019-08-15 04:00:00 17.8 0 Calma 4 Noroeste 0 -- -- 86
2019-08-15 03:00:00 18.4 0 Calma 4 Oeste 0 -- -- 83
2019-08-15 02:00:00 18.5 0 Calma 6 Sur 0 -- -- 82
2019-08-15 01:00:00 18.7 5 Sudeste 9 Sur 0 -- -- 79
2019-08-15 00:00:00 18.4 0 Calma 6 Sur 0 -- -- 81
2019-08-14 23:00:00 19.6 3 Sudoeste 12 Sudoeste 0 -- -- 76
2019-08-14 22:00:00 21.4 4 Noroeste 24 Nordeste 0 -- -- 70
2019-08-14 21:00:00 22 10 Norte 33 Norte 0 -- -- 66
2019-08-14 20:00:00 23.9 15 Norte 36 Norte 0 -- -- 58
2019-08-14 19:00:00 25.3 18 Norte 43 Norte 0 -- -- 53
2019-08-14 18:00:00 26.1 19 Norte 44 Noroeste 0 -- -- 51
2019-08-14 17:00:00 26.8 19 Norte 34 Norte 0 -- -- 50
2019-08-14 16:00:00 26.4 19 Norte 35 Norte 0 -- -- 50
2019-08-14 15:00:00 27.3 15 Norte 30 Norte 0 -- -- 47
2019-08-14 14:00:00 26.3 16 Norte 30 Norte 0 -- -- 47
2019-08-14 13:00:00 25.8 11 Norte 26 Norte 0 -- -- 46
2019-08-14 12:00:00 23.6 3 Sudoeste 7 Sudoeste 0 -- -- 54
2019-08-14 11:00:00 20.5 2 Este 5 Sudeste 0 -- -- 66
2019-08-14 10:00:00 15.7 2 Nordeste 8 Noroeste 0 -- -- 84
2019-08-14 09:00:00 11.9 0 Calma 4 Noroeste 0 -- -- 96
2019-08-14 08:00:00 10.9 0 Calma 5 Noroeste 0 -- -- 96
2019-08-14 07:00:00 11.1 0 Calma 6 Nordeste 0 -- -- 95
2019-08-14 06:00:00 11.2 2 Noroeste 4 Noroeste 0 -- -- 94
2019-08-14 05:00:00 11.9 2 Sudoeste 6 Sudoeste 0 -- -- 93
2019-08-14 04:00:00 12.2 0 Calma 5 Noroeste 0 -- -- 93
2019-08-14 03:00:00 12.4 0 Calma 3 Oeste 0 -- -- 92
2019-08-14 02:00:00 13 0 Calma 3 Oeste 0 -- -- 91
2019-08-14 01:00:00 13.8 0 Calma 3 Sudoeste 0 -- -- 88
2019-08-14 00:00:00 15 0 Calma 5 Sudoeste 0 -- -- 83
2019-08-13 23:00:00 16.3 0 Calma 5 Sudoeste 0 -- -- 79
2019-08-13 22:00:00 18.1 0 Calma 15 Norte 0 -- -- 73
2019-08-13 21:00:00 19.7 7 Noroeste 27 Norte 0 -- -- 66
2019-08-13 20:00:00 21.1 13 Norte 27 Norte 0 -- -- 62
2019-08-13 19:00:00 21.8 14 Norte 32 Norte 0 -- -- 59
2019-08-13 18:00:00 22.1 19 Norte 40 Norte 0 -- -- 58
2019-08-13 17:00:00 22.8 16 Norte 32 Norte 0 -- -- 56
2019-08-13 16:00:00 23 15 Norte 32 Norte 0 -- -- 53
2019-08-13 15:00:00 23 15 Norte 30 Norte 0 -- -- 49
2019-08-13 14:00:00 22.7 10 Noroeste 23 Norte 0 -- -- 50
2019-08-13 13:00:00 21.4 7 Noroeste 18 Nordeste 0 -- -- 48
2019-08-13 12:00:00 19.9 4 Noroeste 9 Noroeste 0 -- -- 56
2019-08-13 11:00:00 17.6 3 Nordeste 6 Noroeste 0 -- -- 65
2019-08-13 10:00:00 14.2 2 Este 4 Nordeste 0 -- -- 76
2019-08-13 09:00:00 10.3 0 Calma 4 Noroeste 0 -- -- 95
2019-08-13 08:00:00 9.3 0 Calma 3 Sudoeste 0 -- -- 93
2019-08-13 07:00:00 9.8 0 Calma 3 Oeste 0 -- -- 93
2019-08-13 06:00:00 10.7 0 Calma 4 Sur 0 -- -- 90
2019-08-13 05:00:00 11.9 0 Calma 4 Sur 0 -- -- 86
2019-08-13 04:00:00 13.1 0 Calma 4 Sudoeste 0 -- -- 85
2019-08-13 03:00:00 14.1 0 Calma 3 Sudeste 0 -- -- 82
2019-08-13 02:00:00 14.8 0 Calma 6 Este 0 -- -- 78
2019-08-13 01:00:00 16.3 0 Calma 13 Noroeste 0 -- -- 70
2019-08-13 00:00:00 16.9 8 Noroeste 19 Norte 0 -- -- 66
2019-08-12 23:00:00 16.9 11 Noroeste 24 Norte 0 -- -- 67
2019-08-12 22:00:00 16.8 8 Norte 33 Norte 0 -- -- 67
2019-08-12 21:00:00 17.1 14 Norte 30 Noroeste 0 -- -- 66
2019-08-12 20:00:00 18 12 Noroeste 32 Norte 0 -- -- 62
2019-08-12 19:00:00 18.8 13 Norte 33 Noroeste 0 -- -- 58
2019-08-12 18:00:00 20.2 14 Norte 36 Norte 0.4 -- -- 50
2019-08-12 17:00:00 20.9 17 Norte 38 Norte 0 -- -- 46
2019-08-12 16:00:00 20.9 16 Norte 43 Nordeste 0 -- -- 47
2019-08-12 15:00:00 20.9 15 Nordeste 33 Norte 0 -- -- 49
2019-08-12 14:00:00 20.9 15 Norte 33 Norte 0 -- -- 47
2019-08-12 13:00:00 19.9 8 Norte 16 Noroeste 0 -- -- 50
2019-08-12 12:00:00 17.6 4 Sudeste 9 Este 0 -- -- 69
2019-08-12 11:00:00 15.4 2 Noroeste 6 Sur 0 -- -- 74
2019-08-12 10:00:00 13.3 2 Este 10 Sudeste 0 -- -- 83
2019-08-12 09:00:00 11 4 Sudeste 12 Sur 0 -- -- 88
2019-08-12 08:00:00 10.4 8 Sudeste 12 Este 0 -- -- 89
2019-08-12 07:00:00 10.6 6 Sudeste 11 Sur 0 -- -- 90
2019-08-12 06:00:00 10.8 8 Sudeste 12 Sur 0 -- -- 91
2019-08-12 05:00:00 11.4 8 Sudeste 12 Sudeste 0 -- -- 90
2019-08-12 04:00:00 12 6 Sudeste 12 Sudeste 0 -- -- 90
2019-08-12 03:00:00 12.2 4 Sudeste 9 Sudeste 0 -- -- 95
2019-08-12 02:00:00 12.5 0 Calma 5 Oeste 0 -- -- 94
2019-08-12 01:00:00 12.9 0 Calma 5 Sudoeste 0 -- -- 94
2019-08-12 00:00:00 13.7 3 Oeste 9 Norte 0 -- -- 93
2019-08-11 23:00:00 14.5 4 Norte 9 Norte 0 -- -- 93
2019-08-11 22:00:00 14.9 0 Calma 8 Sur 0 -- -- 92
2019-08-11 21:00:00 15.3 4 Sur 17 Norte 0.2 -- -- 88
2019-08-11 20:00:00 15.7 9 Noroeste 27 Norte 0.8 -- -- 80
2019-08-11 19:00:00 16.9 14 Norte 31 Norte 0.2 -- -- 71
2019-08-11 18:00:00 17.1 9 Noroeste 32 Norte 0.6 -- -- 72
2019-08-11 17:00:00 18 12 Norte 30 Norte 0 -- -- 71
2019-08-11 16:00:00 20.1 15 Norte 26 Norte 0 -- -- 66
2019-08-11 15:00:00 18.9 11 Norte 27 Norte 0.2 -- -- 69
2019-08-11 14:00:00 19.8 10 Norte 23 Norte 0 -- -- 67
2019-08-11 13:00:00 20.4 10 Norte 19 Norte 0 -- -- 62
2019-08-11 12:00:00 19 3 Noroeste 8 Norte 0 -- -- 68
2019-08-11 11:00:00 17.4 2 Noroeste 8 Noroeste 0 -- -- 78
2019-08-11 10:00:00 16.5 2 Oeste 12 Sudeste 0 -- -- 83
2019-08-11 09:00:00 14.6 3 Sudeste 11 Sudeste 0 -- -- 91
2019-08-11 08:00:00 14.1 0 Calma 5 Oeste 0 -- -- 93
2019-08-11 07:00:00 14.8 4 Noroeste 7 Noroeste 0 -- -- 92
2019-08-11 06:00:00 15.4 0 Calma 9 Oeste 0.8 -- -- 89
2019-08-11 05:00:00 16 2 Noroeste 12 Nordeste 0 -- -- 81
2019-08-11 04:00:00 16 3 Sur 6 Oeste 0 -- -- 81
2019-08-11 03:00:00 16.4 0 Calma 4 Nordeste 0 -- -- 81
2019-08-11 02:00:00 16.9 0 Calma 4 Oeste 0 -- -- 76
2019-08-11 01:00:00 17.4 2 Oeste 8 Sudeste 0 -- -- 75
2019-08-11 00:00:00 17.8 0 Calma 6 Sudeste 0 -- -- 72
2019-08-10 23:00:00 18.1 3 Sudoeste 8 Sudoeste 0 -- -- 67
2019-08-10 22:00:00 19 0 Calma 13 Noroeste 0 -- -- 61
2019-08-10 21:00:00 19 4 Norte 22 Noroeste 0 -- -- 59
2019-08-10 20:00:00 19 12 Noroeste 36 Noroeste 0 -- -- 60
2019-08-10 19:00:00 19 14 Norte 34 Noroeste 0 -- -- 62
2019-08-10 18:00:00 19.4 13 Noroeste 37 Noroeste 0 -- -- 64
2019-08-10 17:00:00 20.3 16 Norte 44 Nordeste 0 -- -- 63
2019-08-10 16:00:00 21.1 22 Norte 44 Norte 0 -- -- 57
2019-08-10 15:00:00 22.2 18 Norte 43 Noroeste 0 -- -- 55
2019-08-10 14:00:00 22 23 Norte 44 Norte 0 -- -- 59
2019-08-10 13:00:00 22.4 17 Noroeste 37 Norte 0 -- -- 55
2019-08-10 12:00:00 22.1 17 Norte 37 Norte 0 -- -- 59
2019-08-10 11:00:00 21.4 10 Noroeste 22 Noroeste 0 -- -- 61
2019-08-10 10:00:00 20.6 9 Norte 18 Norte 0 -- -- 64
2019-08-10 09:00:00 18.7 3 Sur 8 Sudeste 0 -- -- 81
2019-08-10 08:00:00 17.8 3 Sur 6 Sur 0 -- -- 84
2019-08-10 07:00:00 17.8 2 Norte 8 Noroeste 0 -- -- 83
2019-08-10 06:00:00 17.7 3 Norte 12 Sudeste 0 -- -- 83
2019-08-10 05:00:00 17.7 3 Sudeste 8 Sudeste 0 -- -- 82
2019-08-10 04:00:00 17.7 0 Calma 8 Sudeste 0 -- -- 82
2019-08-10 03:00:00 18.1 2 Sur 6 Sudeste 0 -- -- 81
2019-08-10 02:00:00 19.4 3 Sur 13 Sudeste 0 -- -- 73
2019-08-10 01:00:00 20.2 9 Sudeste 16 Sudeste 0 -- -- 68
2019-08-10 00:00:00 21.9 6 Norte 22 Noroeste 0 -- -- 66
2019-08-09 23:00:00 22.2 11 Norte 24 Norte 0 -- -- 64
2019-08-09 22:00:00 23 9 Noroeste 22 Norte 0 -- -- 60
2019-08-09 21:00:00 23.4 5 Noroeste 17 Norte 0 -- -- 60
2019-08-09 20:00:00 24.3 7 Noroeste 23 Norte 0 -- -- 58
2019-08-09 19:00:00 25.6 9 Norte 25 Norte 0 -- -- 58
2019-08-09 18:00:00 24.7 15 Norte 24 Norte 0 -- -- 62
2019-08-09 17:00:00 25.2 8 Norte 21 Norte 0 -- -- 62
2019-08-09 16:00:00 25.3 10 Norte 26 Nordeste 0 -- -- 58
2019-08-09 15:00:00 28.9 10 Sudeste 30 Sur 0 -- -- 30
2019-08-09 14:00:00 28.6 15 Sudeste 39 Sudeste 0 -- -- 30
2019-08-09 13:00:00 28.6 13 Sur 41 Sudeste 0 -- -- 32
2019-08-09 12:00:00 26.2 11 Sur 42 Sudeste 0 -- -- 43
2019-08-09 11:00:00 24.3 7 Norte 15 Norte 0 -- -- 74
2019-08-09 10:00:00 24 5 Norte 27 Nordeste 0 -- -- 74
2019-08-09 09:00:00 23.5 5 Norte 22 Nordeste 0 -- -- 75
2019-08-09 08:00:00 25.7 9 Sur 15 Sudeste 0 -- -- 60
2019-08-09 07:00:00 26.3 5 Sudeste 24 Sudoeste 0 -- -- 56
2019-08-09 06:00:00 26.4 5 Sur 12 Sudeste 0 -- -- 54
2019-08-09 05:00:00 27.3 5 Sur 25 Oeste 0 -- -- 50
2019-08-09 04:00:00 28.3 9 Sudoeste 27 Oeste 0 -- -- 47
2019-08-09 03:00:00 27.4 7 Sur 22 Sur 0 -- -- 48
2019-08-09 02:00:00 28.8 10 Sudoeste 30 Sudoeste 0 -- -- 45
2019-08-09 01:00:00 29.2 8 Sur 35 Sudoeste 0 -- -- 42
2019-08-09 00:00:00 29.8 15 Sur 42 Oeste 0 -- -- 40
2019-08-08 23:00:00 30.2 14 Sudoeste 42 Sudoeste 0 -- -- 39
2019-08-08 22:00:00 30.6 8 Oeste 32 Sudoeste 0 -- -- 42
2019-08-08 21:00:00 29.1 8 Sur 15 Sudeste 0 -- -- 51
2019-08-08 20:00:00 30.1 5 Sur 25 Sudeste 0 -- -- 48
2019-08-08 19:00:00 31.3 12 Sur 29 Sur 0 -- -- 45
2019-08-08 18:00:00 33 11 Sur 31 Oeste 0 -- -- 41
2019-08-08 17:00:00 30.5 6 Sur 12 Sur 0 -- -- 46
2019-08-08 16:00:00 30.1 6 Sur 23 Sudoeste 0 -- -- 46
2019-08-08 15:00:00 30 8 Sur 23 Sudoeste 0 -- -- 47
2019-08-08 14:00:00 30.1 10 Oeste 31 Oeste 0 -- -- 46
2019-08-08 13:00:00 31.5 12 Sur 34 Sudeste 0 -- -- 42
2019-08-08 12:00:00 29.6 10 Sur 32 Sudeste 0 -- -- 45
2019-08-08 11:00:00 28.6 9 Sur 31 Sudeste 0 -- -- 49
2019-08-08 10:00:00 26.2 19 Sudeste 31 Sur 0 -- -- 54
2019-08-08 09:00:00 21 17 Sudeste 26 Sudeste 0 -- -- 74
2019-08-08 08:00:00 19 12 Sudeste 18 Sudeste 0 -- -- 83
2019-08-08 07:00:00 17.7 2 Noroeste 16 Sudeste 0 -- -- 91
2019-08-08 06:00:00 17.9 2 Nordeste 5 Noroeste 0 -- -- 93
2019-08-08 05:00:00 17.9 0 Calma 7 Oeste 0 -- -- 93
2019-08-08 04:00:00 17.7 3 Noroeste 8 Sudeste 0 -- -- 92
2019-08-08 03:00:00 17.4 3 Norte 6 Sudoeste 0 -- -- 92
2019-08-08 02:00:00 17.3 3 Sudoeste 5 Sudoeste 0 -- -- 89
2019-08-08 01:00:00 18.6 0 Calma 8 Sudoeste 0 -- -- 84
2019-08-08 00:00:00 19.7 0 Calma 6 Sudeste 0 -- -- 81
2019-08-07 23:00:00 21.2 0 Calma 5 Sudoeste 0 -- -- 75
2019-08-07 22:00:00 22.5 2 Sudoeste 14 Norte 0 -- -- 69
2019-08-07 21:00:00 23.8 5 Norte 20 Noroeste 0 -- -- 61
2019-08-07 20:00:00 24.4 8 Norte 17 Noroeste 0 -- -- 61
2019-08-07 19:00:00 25 8 Norte 29 Norte 0 -- -- 62
2019-08-07 18:00:00 25.3 14 Norte 28 Noroeste 0 -- -- 62
2019-08-07 17:00:00 26 13 Norte 29 Norte 0 -- -- 66
2019-08-07 16:00:00 27.3 12 Noroeste 30 Noroeste 0 -- -- 60
2019-08-07 15:00:00 27.7 9 Norte 21 Norte 0 -- -- 55
2019-08-07 14:00:00 27.4 9 Norte 23 Noroeste 0 -- -- 55
2019-08-07 13:00:00 26.5 8 Noroeste 18 Norte 0 -- -- 57
2019-08-07 12:00:00 25 3 Noroeste 8 Oeste 0 -- -- 60
2019-08-07 11:00:00 22.4 2 Sudeste 6 Sudeste 0 -- -- 68
2019-08-07 10:00:00 19.4 0 Calma 4 Noroeste 0 -- -- 83
2019-08-07 09:00:00 16.2 0 Calma -- -- 0 -- -- 95
2019-08-07 08:00:00 16.2 0 Calma 0 Calma 0 -- -- 94
2019-08-07 07:00:00 16.7 0 Calma 0 Calma 0 -- -- 94
2019-08-07 06:00:00 17.3 0 Calma 3 Sudoeste 0 -- -- 93
2019-08-07 05:00:00 17.4 0 Calma 3 Noroeste 0 -- -- 93
2019-08-07 04:00:00 17.5 0 Calma 4 Sur 0 -- -- 92
2019-08-07 03:00:00 17.8 2 Oeste 8 Sudeste 0 -- -- 90
2019-08-07 02:00:00 18.6 0 Calma 6 Sudeste 0 -- -- 88
2019-08-07 01:00:00 19.2 0 Calma 6 Sudoeste 0 -- -- 86
2019-08-07 00:00:00 19.7 3 Este 9 Nordeste 0 -- -- 85
2019-08-06 23:00:00 20.2 0 Calma 9 Sur 0 -- -- 81
2019-08-06 22:00:00 20.7 3 Oeste 22 Noroeste 0 -- -- 76
2019-08-06 21:00:00 21.4 7 Noroeste 35 Norte 0 -- -- 72
2019-08-06 20:00:00 21.8 18 Norte 42 Norte 0 -- -- 72
2019-08-06 19:00:00 22.7 14 Norte 34 Norte 0 -- -- 70
2019-08-06 18:00:00 23.9 17 Norte 34 Norte 0 -- -- 67
2019-08-06 17:00:00 25 16 Norte 37 Norte 0 -- -- 63
2019-08-06 16:00:00 25.8 14 Norte 37 Noroeste 0 -- -- 62
2019-08-06 15:00:00 26.6 19 Norte 36 Norte 0 -- -- 59
2019-08-06 14:00:00 26.2 13 Noroeste 27 Noroeste 0 -- -- 58
2019-08-06 13:00:00 25.1 10 Noroeste 18 Noroeste 0 -- -- 64
2019-08-06 12:00:00 23.3 5 Norte 15 Norte 0 -- -- 69
2019-08-06 11:00:00 21.1 2 Nordeste 6 Nordeste 0 -- -- 76
2019-08-06 10:00:00 19 0 Calma 6 Este 0 -- -- 82
2019-08-06 09:00:00 16 0 Calma 4 Norte 0 -- -- 96
2019-08-06 08:00:00 15 2 Sudoeste 4 Sudeste 0 -- -- 96
2019-08-06 07:00:00 15.1 2 Sudeste 4 Oeste 0 -- -- 95
2019-08-06 06:00:00 15.5 0 Calma 3 Sur 0 -- -- 94
2019-08-06 05:00:00 16.1 0 Calma 4 Sudoeste 0 -- -- 92
2019-08-06 04:00:00 17 0 Calma 4 Sudeste 0 -- -- 90
2019-08-06 03:00:00 18 0 Calma 3 Norte 0 -- -- 89
2019-08-06 02:00:00 18.8 0 Calma 5 Sur 0 -- -- 86
2019-08-06 01:00:00 19.2 0 Calma 4 Sur 0 -- -- 84
2019-08-06 00:00:00 19.6 0 Calma 6 Sudoeste 0 -- -- 82
2019-08-05 23:00:00 20.9 0 Calma 19 Noroeste 0 -- -- 77
2019-08-05 22:00:00 22.1 8 Norte 26 Norte 0 -- -- 73
2019-08-05 21:00:00 22.8 11 Norte 30 Norte 0 -- -- 70
2019-08-05 20:00:00 24 14 Noroeste 33 Norte 0 -- -- 67
2019-08-05 19:00:00 25.1 17 Norte 42 Norte 0 -- -- 62
2019-08-05 18:00:00 26.4 15 Noroeste 37 Noroeste 0 -- -- 56
2019-08-05 17:00:00 26.6 15 Norte 38 Norte 0 -- -- 54
2019-08-05 16:00:00 25.7 21 Norte 40 Norte 0 -- -- 60
2019-08-05 15:00:00 25.4 17 Norte 36 Norte 0 -- -- 60
2019-08-05 14:00:00 25.5 14 Noroeste 33 Norte 0 -- -- 60
2019-08-05 13:00:00 25 7 Norte 19 Noroeste 0 -- -- 62
2019-08-05 12:00:00 23.6 7 Nordeste 14 Norte 0 -- -- 65
2019-08-05 11:00:00 22.3 5 Sudeste 12 Nordeste 0 -- -- 71
2019-08-05 10:00:00 19.4 0 Calma 4 Sur 0 -- -- 81
2019-08-05 09:00:00 17.4 3 Sur 8 Sudeste 0 -- -- 86
2019-08-05 08:00:00 16.5 0 Calma 4 Sudeste 0 -- -- 95
2019-08-05 07:00:00 16.2 0 Calma -- -- 0 -- -- 95
2019-08-05 06:00:00 16.7 0 Calma -- -- 0 -- -- 93
2019-08-05 05:00:00 17.7 0 Calma -- -- 0 -- -- 91
2019-08-05 04:00:00 18.6 0 Calma -- -- 0 -- -- 90
2019-08-05 03:00:00 19.3 0 Calma -- -- 0 -- -- 87
2019-08-05 02:00:00 19.6 0 Calma 3 Sudoeste 0 -- -- 87
2019-08-05 01:00:00 19.9 0 Calma 6 Nordeste 0 -- -- 85
2019-08-05 00:00:00 20.1 2 Norte 9 Nordeste 0 -- -- 83
2019-08-04 23:00:00 20.5 6 Nordeste 9 Nordeste 0 -- -- 80
2019-08-04 22:00:00 21 2 Este 14 Norte 0 -- -- 76
2019-08-04 21:00:00 21.3 6 Norte 17 Norte 0 -- -- 73
2019-08-04 20:00:00 21.3 9 Noroeste 28 Noroeste 0 -- -- 73
2019-08-04 19:00:00 21.5 13 Norte 35 Norte 0 -- -- 74
2019-08-04 18:00:00 21.8 19 Norte 32 Norte 0 -- -- 72
2019-08-04 17:00:00 22.3 11 Norte 31 Norte 0 -- -- 72
2019-08-04 16:00:00 22.4 16 Norte 33 Norte 0 -- -- 72
2019-08-04 15:00:00 23.4 12 Noroeste 22 Noroeste 0 -- -- 67
2019-08-04 14:00:00 23.9 6 Noroeste 17 Nordeste 0 -- -- 65
2019-08-04 13:00:00 22.9 3 Oeste 9 Norte 0 -- -- 68
2019-08-04 12:00:00 21.8 3 Oeste 5 Oeste 0 -- -- 71
2019-08-04 11:00:00 20.9 0 Calma 8 Sur 0 -- -- 75
2019-08-04 10:00:00 19.9 5 Sur 12 Sur 0 -- -- 80
2019-08-04 09:00:00 19.4 5 Sur 11 Sur 0 -- -- 82
2019-08-04 08:00:00 19.3 7 Sudeste 12 Sur 0 -- -- 82
2019-08-04 07:00:00 19.2 5 Sudeste 10 Sudeste 0 -- -- 84
2019-08-04 06:00:00 19 2 Sur 5 Sur 0 -- -- 88
2019-08-04 05:00:00 18.7 0 Calma 3 Noroeste 0 -- -- 90
2019-08-04 04:00:00 18.6 0 Calma 2 Oeste 0 -- -- 90
2019-08-04 03:00:00 18.3 0 Calma -- -- 0 -- -- 89
2019-08-04 02:00:00 17.9 0 Calma 6 Sudeste 0 -- -- 90
2019-08-04 01:00:00 18.7 3 Sudeste 6 Sudoeste 0 -- -- 87
2019-08-04 00:00:00 19.3 2 Sur 5 Sur 0 -- -- 85
2019-08-03 23:00:00 20.4 4 Noroeste 21 Norte 0 -- -- 81
2019-08-03 22:00:00 21.2 8 Noroeste 24 Norte 0 -- -- 78
2019-08-03 21:00:00 22.6 4 Norte 22 Norte 0 -- -- 73
2019-08-03 20:00:00 24.2 9 Noroeste 34 Norte 0 -- -- 68
2019-08-03 19:00:00 25.1 14 Noroeste 37 Noroeste 0 -- -- 66
2019-08-03 18:00:00 25.8 14 Noroeste 33 Norte 0 -- -- 65
2019-08-03 17:00:00 26.8 16 Norte 37 Norte 0 -- -- 61
2019-08-03 16:00:00 28.1 18 Norte 44 Norte 0 -- -- 54
2019-08-03 15:00:00 27.3 25 Norte 46 Norte 0 -- -- 59
2019-08-03 14:00:00 27.8 12 Norte 28 Noroeste 0 -- -- 57
2019-08-03 13:00:00 26.8 6 Norte 19 Noroeste 0 -- -- 59
2019-08-03 12:00:00 24.2 3 Nordeste 8 Noroeste 0 -- -- 61
2019-08-03 11:00:00 21 3 Oeste 6 Oeste 0 -- -- 74
2019-08-03 10:00:00 18.3 2 Este 4 Este 0 -- -- 81
2019-08-03 09:00:00 14.9 0 Calma 5 Sur 0 -- -- 92
2019-08-03 08:00:00 14.7 0 Calma 6 Sudeste 0 -- -- 93
2019-08-03 07:00:00 14.5 4 Sudeste 7 Sudeste 0 -- -- 94
2019-08-03 06:00:00 14.7 0 Calma 7 Sudeste 0 -- -- 95
2019-08-03 05:00:00 15 0 Calma 4 Noroeste 0 -- -- 94
2019-08-03 04:00:00 15.4 0 Calma 4 Este 0 -- -- 94
2019-08-03 03:00:00 16.1 0 Calma 2 Sudoeste 0 -- -- 93
2019-08-03 02:00:00 16.5 0 Calma 3 Sudoeste 0 -- -- 92
2019-08-03 01:00:00 17.2 0 Calma 4 Sudoeste 0 -- -- 90
2019-08-03 00:00:00 18.4 0 Calma 6 Sudoeste 0 -- -- 88
2019-08-02 23:00:00 19.8 0 Calma 5 Sudeste 0 -- -- 83
2019-08-02 22:00:00 21.2 6 Norte 15 Norte 0 -- -- 79
2019-08-02 21:00:00 22 10 Noroeste 29 Norte 0 -- -- 76
2019-08-02 20:00:00 23.2 16 Norte 34 Norte 0 -- -- 72
2019-08-02 19:00:00 24.3 11 Noroeste 30 Norte 0 -- -- 68
2019-08-02 18:00:00 25.1 14 Norte 28 Noroeste 0 -- -- 67
2019-08-02 17:00:00 25.7 13 Norte 31 Norte 0 -- -- 64
2019-08-02 16:00:00 26.2 12 Norte 31 Norte 0 -- -- 61
2019-08-02 15:00:00 25.9 12 Norte 27 Norte 0 -- -- 61
2019-08-02 14:00:00 25.3 11 Norte 22 Norte 0 -- -- 60
2019-08-02 13:00:00 24.4 7 Norte 13 Norte 0 -- -- 60
2019-08-02 12:00:00 21.9 4 Oeste 8 Oeste 0 -- -- 66
2019-08-02 11:00:00 20.2 3 Sudeste 12 Sudeste 0 -- -- 71
2019-08-02 10:00:00 17.7 5 Sur 9 Sur 0 -- -- 77
2019-08-02 09:00:00 16.5 3 Sudeste 6 Sudeste 0 -- -- 80
2019-08-02 08:00:00 16.1 0 Calma 7 Sur 0 -- -- 84
2019-08-02 07:00:00 15.8 0 Calma 4 Sudeste 0 -- -- 90
2019-08-02 06:00:00 15.5 0 Calma 4 Noroeste 0 -- -- 92
2019-08-02 05:00:00 15.1 0 Calma 2 Sudeste 0 -- -- 93
2019-08-02 04:00:00 14.9 0 Calma 3 Sudoeste 0 -- -- 92
2019-08-02 03:00:00 15.8 0 Calma 3 Sudoeste 0 -- -- 89
2019-08-02 02:00:00 17.2 0 Calma 3 Nordeste 0 -- -- 87
2019-08-02 01:00:00 17.9 0 Calma 5 Sudoeste 0 -- -- 85
2019-08-02 00:00:00 18.4 2 Sur 10 Norte 0 -- -- 80
2019-08-01 23:00:00 19.4 7 Noroeste 18 Noroeste 0 -- -- 76
2019-08-01 22:00:00 19.6 5 Norte 29 Oeste 0 -- -- 75
2019-08-01 21:00:00 19.9 11 Noroeste 35 Norte 0 -- -- 74
2019-08-01 20:00:00 20.9 15 Noroeste 37 Noroeste 0 -- -- 70
2019-08-01 19:00:00 21.6 18 Noroeste 36 Norte 0 -- -- 69
2019-08-01 18:00:00 23 12 Noroeste 27 Noroeste 0 -- -- 66
2019-08-01 17:00:00 24.4 11 Norte 22 Noroeste 0 -- -- 62
2019-08-01 16:00:00 23.2 11 Noroeste 20 Noroeste 0 -- -- 63
2019-08-01 15:00:00 23 7 Norte 15 Noroeste 0 -- -- 62
2019-08-01 14:00:00 22 4 Noroeste 13 Noroeste 0 -- -- 65
2019-08-01 13:00:00 21.4 8 Norte 15 Nordeste 0 -- -- 63
2019-08-01 12:00:00 20.4 4 Noroeste 7 Noroeste 0 -- -- 68
2019-08-01 11:00:00 19 0 Calma 4 Noroeste 0 -- -- 72
2019-08-01 10:00:00 17.7 0 Calma 3 Noroeste 0 -- -- 78
2019-08-01 09:00:00 16.9 0 Calma 3 Oeste 0 -- -- 84
2019-08-01 08:00:00 16.4 0 Calma 6 Oeste 0 -- -- 84
2019-08-01 07:00:00 16.7 0 Calma 5 Noroeste 0 -- -- 82
2019-08-01 06:00:00 17.4 2 Sur 7 Sur 0 -- -- 79
2019-08-01 05:00:00 17.5 2 Nordeste 14 Norte 0 -- -- 75
2019-08-01 04:00:00 17.3 0 Calma 2 Oeste 0 -- -- 84
2019-08-01 03:00:00 17.3 2 Oeste 4 Sudoeste 0 -- -- 85
2019-08-01 02:00:00 17.4 0 Calma 4 Noroeste 0 -- -- 86
2019-08-01 01:00:00 17.6 0 Calma 3 Oeste 0 -- -- 83
2019-08-01 00:00:00 17.7 0 Calma 6 Nordeste 0 -- -- 82
2019-07-31 23:00:00 18.1 3 Norte 18 Norte 0 -- -- 77
2019-07-31 22:00:00 18.2 9 Norte 24 Norte 0 -- -- 76
2019-07-31 21:00:00 18.7 10 Norte 30 Norte 0 -- -- 74
2019-07-31 20:00:00 19.1 10 Norte 31 Noroeste 0 -- -- 73
2019-07-31 19:00:00 19.9 15 Norte 39 Noroeste 0 -- -- 69
2019-07-31 18:00:00 21.2 13 Norte 33 Nordeste 0 -- -- 66
2019-07-31 17:00:00 21.4 12 Norte 31 Noroeste 0 -- -- 63
2019-07-31 16:00:00 22.1 13 Noroeste 27 Norte 0 -- -- 61
2019-07-31 15:00:00 22.6 13 Norte 29 Noroeste 0 -- -- 57
2019-07-31 14:00:00 22.3 10 Norte 23 Noroeste 0 -- -- 55
2019-07-31 13:00:00 22 6 Norte 17 Norte 0 -- -- 54
2019-07-31 12:00:00 20.5 6 Nordeste 17 Norte 0 -- -- 55
2019-07-31 11:00:00 19.6 2 Este 9 Este 0 -- -- 58
2019-07-31 10:00:00 17.9 4 Sudeste 9 Sudeste 0 -- -- 67
2019-07-31 09:00:00 14.3 0 Calma 3 Oeste 0 -- -- 88
2019-07-31 08:00:00 13.8 0 Calma 3 Noroeste 0 -- -- 89
2019-07-31 07:00:00 13.6 0 Calma 4 Noroeste 0 -- -- 89
2019-07-31 06:00:00 14.1 0 Calma 0 Calma 0 -- -- 88
2019-07-31 05:00:00 14.9 0 Calma 3 Sudoeste 0 -- -- 85
2019-07-31 04:00:00 15.2 0 Calma 5 Oeste 0 -- -- 82
2019-07-31 03:00:00 15.6 0 Calma 3 Sudoeste 0 -- -- 81
2019-07-31 02:00:00 16 4 Sur 8 Sur 0 -- -- 80
2019-07-31 01:00:00 15.9 3 Sudoeste 7 Norte 0 -- -- 80
2019-07-31 00:00:00 16.1 0 Calma 16 Noroeste 0 -- -- 75
2019-07-30 23:00:00 16.1 8 Noroeste 21 Noroeste 0 -- -- 76
2019-07-30 22:00:00 16.3 7 Noroeste 20 Oeste 0 -- -- 75
2019-07-30 21:00:00 16.8 8 Noroeste 24 Norte 0 -- -- 73
2019-07-30 20:00:00 17.6 9 Norte 24 Norte 0 -- -- 68
2019-07-30 19:00:00 17.9 17 Norte 41 Norte 0 -- -- 67
2019-07-30 18:00:00 19.4 18 Norte 36 Norte 0 -- -- 62
2019-07-30 17:00:00 20.6 10 Norte 31 Nordeste 0 -- -- 54
2019-07-30 16:00:00 21.2 13 Norte 40 Norte 0 -- -- 51
2019-07-30 15:00:00 21.3 15 Norte 33 Nordeste 0 -- -- 50
2019-07-30 14:00:00 21.5 13 Norte 30 Noroeste 0 -- -- 47
2019-07-30 13:00:00 21.5 9 Norte 22 Norte 0 -- -- 43
2019-07-30 12:00:00 21.1 4 Sur 14 Norte 0 -- -- 44
2019-07-30 11:00:00 19.1 2 Norte 6 Este 0 -- -- 55
2019-07-30 10:00:00 16.1 0 Calma 8 Nordeste 0 -- -- 79
2019-07-30 09:00:00 13.9 3 Norte 7 Noroeste 0 -- -- 90
2019-07-30 08:00:00 12.5 2 Sudoeste 8 Sur 0 -- -- 93
2019-07-30 07:00:00 13 5 Sudeste 8 Sudeste 0 -- -- 91
2019-07-30 06:00:00 13.8 3 Oeste 10 Sudeste 0 -- -- 87
2019-07-30 05:00:00 15.1 3 Sur 8 Sudeste 0 -- -- 87
2019-07-30 04:00:00 16.1 4 Sudeste 9 Sur 0 -- -- 86
2019-07-30 03:00:00 17.6 3 Oeste 14 Noroeste 0 -- -- 68
2019-07-30 02:00:00 17.7 5 Norte 14 Noroeste 0 -- -- 69
2019-07-30 01:00:00 17.6 0 Calma 7 Sur 0 -- -- 78
2019-07-30 00:00:00 18 3 Sur 14 Noroeste 0 -- -- 79
2019-07-29 23:00:00 18.1 7 Norte 27 Norte 0 -- -- 74
2019-07-29 22:00:00 18.5 8 Norte 27 Noroeste 0 -- -- 72
2019-07-29 21:00:00 18.7 14 Noroeste 31 Norte 0 -- -- 71
2019-07-29 20:00:00 19.4 16 Norte 31 Norte 0 -- -- 71
2019-07-29 19:00:00 20.4 10 Norte 34 Norte 0 -- -- 69
2019-07-29 18:00:00 20.9 12 Noroeste 30 Norte 0 -- -- 66
2019-07-29 17:00:00 21.5 16 Norte 45 Noroeste 0 -- -- 65
2019-07-29 16:00:00 21 26 Norte 48 Norte 0 -- -- 68
2019-07-29 15:00:00 21.5 21 Norte 42 Noroeste 0 -- -- 69
2019-07-29 14:00:00 22.9 14 Noroeste 36 Norte 0 -- -- 65
2019-07-29 13:00:00 22.5 15 Noroeste 37 Norte 0 -- -- 62
2019-07-29 12:00:00 22.6 13 Norte 31 Norte 0 -- -- 60
2019-07-29 11:00:00 20 3 Sur 6 Sudeste 0 -- -- 70
2019-07-29 10:00:00 16.7 2 Este 5 Sudeste 0 -- -- 81
2019-07-29 09:00:00 13.5 0 Calma 8 Sudeste 0 -- -- 93
2019-07-29 08:00:00 13.1 4 Sur 10 Sudeste 0 -- -- 93
2019-07-29 07:00:00 13.3 2 Sur 8 Sudeste 0 -- -- 94
2019-07-29 06:00:00 13.1 0 Calma 5 Sudeste 0 -- -- 96
2019-07-29 05:00:00 13.3 0 Calma -- -- 0 -- -- 96
2019-07-29 04:00:00 13.2 0 Calma 3 Norte 0 -- -- 95
2019-07-29 03:00:00 13.8 0 Calma 3 Sudoeste 0 -- -- 94
2019-07-29 02:00:00 14.5 0 Calma 5 Oeste 0 -- -- 93
2019-07-29 01:00:00 15.5 0 Calma 5 Oeste 0 -- -- 92
2019-07-29 00:00:00 16.3 0 Calma 5 Oeste 0 -- -- 89
2019-07-28 23:00:00 17.7 2 Sur 8 Sudoeste 0 -- -- 85
2019-07-28 22:00:00 19.3 0 Calma 5 Sudoeste 0 -- -- 79
2019-07-28 21:00:00 21.1 5 Noroeste 19 Norte 0 -- -- 72
2019-07-28 20:00:00 22.7 9 Noroeste 35 Noroeste 0 -- -- 66
2019-07-28 19:00:00 23.2 13 Norte 34 Norte 0 -- -- 64
2019-07-28 18:00:00 23.3 14 Noroeste 35 Noroeste 0 -- -- 63
2019-07-28 17:00:00 23.4 15 Norte 32 Norte 0 -- -- 60
2019-07-28 16:00:00 23.3 16 Norte 35 Norte 0 -- -- 60
2019-07-28 15:00:00 22.9 17 Norte 33 Noroeste 0 -- -- 60
2019-07-28 14:00:00 22.6 11 Norte 25 Norte 0 -- -- 57
2019-07-28 13:00:00 22.2 6 Norte 15 Norte 0 -- -- 59
2019-07-28 12:00:00 20.3 9 Norte 18 Norte 0 -- -- 62
2019-07-28 11:00:00 17.8 3 Norte 6 Norte 0 -- -- 67
2019-07-28 10:00:00 15 0 Calma 4 Este 0 -- -- 82
2019-07-28 09:00:00 11.3 0 Calma 4 Sudoeste 0 -- -- 97
2019-07-28 08:00:00 10.8 0 Calma 6 Sur 0 -- -- 96
2019-07-28 07:00:00 11.2 3 Sur 8 Sudeste 0 -- -- 96
2019-07-28 06:00:00 11.4 0 Calma 9 Sudeste 0 -- -- 95
2019-07-28 05:00:00 11.7 0 Calma 4 Sudeste 0 -- -- 95
2019-07-28 04:00:00 12.4 0 Calma 4 Oeste 0 -- -- 93
2019-07-28 03:00:00 13.5 0 Calma 4 Sudoeste 0 -- -- 91
2019-07-28 02:00:00 14.4 2 Sur 5 Sudoeste 0 -- -- 89
2019-07-28 01:00:00 15.5 0 Calma 6 Sudoeste 0 -- -- 85
2019-07-28 00:00:00 16.4 3 Sur 15 Oeste 0 -- -- 80
2019-07-27 23:00:00 17.4 8 Norte 27 Nordeste 0 -- -- 69
2019-07-26 12:00:00 -- -- -- -- -- -- -- -- --
2019-07-26 11:00:00 17.3 4 Noroeste 25 Norte 1 -- -- 87
2019-07-26 10:00:00 17.8 8 Noroeste 23 Norte 1.8 -- -- 86
2019-07-26 09:00:00 17.4 3 Oeste 27 Norte 12.2 -- -- 92
2019-07-26 08:00:00 19 16 Noroeste 32 Noroeste 0 -- -- 78
2019-07-26 07:00:00 18.7 13 Noroeste 32 Norte 0 -- -- 82
2019-07-26 06:00:00 19 9 Norte 23 Noroeste 0.4 -- -- 83
2019-07-26 05:00:00 19.9 9 Noroeste 22 Noroeste 0 -- -- 77
2019-07-26 04:00:00 19.8 7 Norte 15 Norte 0 -- -- 82
2019-07-26 03:00:00 20.2 5 Norte 27 Norte 0 -- -- 81
2019-07-26 02:00:00 20.2 9 Norte 18 Nordeste 0 -- -- 83
2019-07-26 01:00:00 20.8 5 Norte 12 Noroeste 0 -- -- 79
2019-07-26 00:00:00 21.2 5 Nordeste 12 Nordeste 0 -- -- 77
2019-07-25 23:00:00 21.7 5 Norte 15 Norte 0 -- -- 74
2019-07-25 22:00:00 22.4 8 Norte 30 Norte 0 -- -- 69
2019-07-25 21:00:00 22.9 16 Norte 42 Noroeste 0 -- -- 65
2019-07-25 20:00:00 24.4 16 Norte 43 Noroeste 0 -- -- 59
2019-07-25 19:00:00 25 21 Noroeste 48 Noroeste 0 -- -- 57
2019-07-25 18:00:00 26.7 24 Noroeste 55 Noroeste 0 -- -- 52
2019-07-25 17:00:00 27.5 15 Norte 50 Norte 0 -- -- 49
2019-07-25 16:00:00 27.2 19 Norte 43 Noroeste 0 -- -- 56
2019-07-25 15:00:00 28.5 18 Norte 39 Norte 0 -- -- 50
2019-07-25 14:00:00 29.7 19 Norte 38 Norte 0 -- -- 49
2019-07-25 13:00:00 30.1 12 Norte 26 Norte 0 -- -- 49
2019-07-25 12:00:00 29 10 Norte 26 Noroeste 0 -- -- 52
2019-07-25 11:00:00 25.4 3 Norte 8 Norte 0 -- -- 63
2019-07-25 10:00:00 22.1 2 Norte 5 Norte 0 -- -- 76
2019-07-25 09:00:00 19.2 0 Calma 7 Sudeste 0 -- -- 84
2019-07-25 08:00:00 18.8 4 Sur 14 Sudeste 0 -- -- 84
2019-07-25 07:00:00 19.4 9 Sudeste 14 Sudeste 0 -- -- 82
2019-07-25 06:00:00 20.6 9 Sudeste 15 Sudeste 0 -- -- 79
2019-07-25 05:00:00 21.5 5 Sur 12 Sur 0 -- -- 81
2019-07-25 04:00:00 21.9 7 Sudeste 13 Sudeste 0 -- -- 79
2019-07-25 03:00:00 21.8 8 Sudeste 12 Sudeste 0 -- -- 80
2019-07-25 02:00:00 21.8 3 Sur 8 Sur -- -- -- 89
2019-07-25 01:00:00 21.2 0 Calma 10 Norte 0 -- -- 88
2019-07-25 00:00:00 22.8 8 Nordeste 14 Nordeste 0 -- -- 87
2019-07-24 23:00:00 23.8 8 Nordeste 14 Nordeste 0 -- -- 83
2019-07-24 22:00:00 25.3 7 Nordeste 21 Nordeste 0 -- -- 77
2019-07-24 21:00:00 27.2 11 Nordeste 27 Nordeste 0 -- -- 70
2019-07-24 20:00:00 30.3 17 Nordeste 30 Nordeste 0 -- -- 58
2019-07-24 19:00:00 37.9 10 Sur 32 Sur 0 -- -- 21
2019-07-24 18:00:00 38.2 9 Sudoeste 29 Sur 0 -- -- 22
2019-07-24 17:00:00 38.2 12 Sur 33 Sudoeste 0 -- -- 22
2019-07-24 16:00:00 36.5 9 Sudoeste 30 Sur 0 -- -- 27
2019-07-24 15:00:00 33.4 13 Nordeste 22 Norte 0 -- -- 45
2019-07-24 14:00:00 31.3 12 Nordeste 20 Norte 0 -- -- 52
2019-07-24 13:00:00 29 9 Nordeste 15 Nordeste 0 -- -- 54
2019-07-24 12:00:00 26.3 0 Calma 5 Sudeste 0 -- -- 61
2019-07-24 11:00:00 23.3 0 Calma 5 Este 0 -- -- 73
2019-07-24 10:00:00 20.8 2 Nordeste 5 Noroeste 0 -- -- 85
2019-07-24 09:00:00 18.2 0 Calma 5 Sur 0 -- -- 93
2019-07-24 08:00:00 17.1 2 Sudoeste 7 Sudeste 0 -- -- 96
2019-07-24 07:00:00 17.3 3 Sur 6 Sur 0 -- -- 95
2019-07-24 06:00:00 17.9 0 Calma 4 Sudoeste 0 -- -- 95
2019-07-24 05:00:00 18.6 0 Calma 8 Noroeste 0 -- -- 94
2019-07-24 04:00:00 19.6 6 Sudeste 14 Sur 0 -- -- 93
2019-07-24 03:00:00 19.7 0 Calma 10 Sudeste 0 -- -- 92
2019-07-24 02:00:00 20.6 6 Sudeste 15 Sudeste 0 -- -- 92
2019-07-24 01:00:00 20.8 3 Sur 14 Sudeste 0 -- -- 93
2019-07-24 00:00:00 21.1 0 Calma 12 Sudeste 0 -- -- 91
2019-07-23 23:00:00 21.6 6 Norte 12 Nordeste 1.4 -- -- 89
2019-07-23 22:00:00 23 2 Sudoeste 31 Norte 0 -- -- 76
2019-07-23 21:00:00 25.5 18 Noroeste 68 Noroeste 0 -- -- 65
2019-07-23 20:00:00 28 20 Noroeste 45 Noroeste 0 -- -- 53
2019-07-23 19:00:00 31.6 19 Norte 41 Norte 0 -- -- 41
2019-07-23 18:00:00 33.6 12 Norte 29 Norte 0 -- -- 35
2019-07-23 17:00:00 34.4 14 Norte 27 Norte 0 -- -- 36
2019-07-23 16:00:00 36.9 8 Sur 22 Sudoeste 0 -- -- 28
2019-07-23 15:00:00 35.8 4 Noroeste 21 Sudoeste 0 -- -- 28
2019-07-23 14:00:00 33.2 5 Norte 9 Noroeste 0 -- -- 37
2019-07-23 13:00:00 31.3 3 Este 13 Oeste 0 -- -- 40
2019-07-23 12:00:00 29.8 5 Sudoeste 24 Sudeste 0 -- -- 47
2019-07-23 11:00:00 30.8 11 Sur 28 Sur 0 -- -- 40
2019-07-23 10:00:00 24.1 14 Sudeste 22 Sudeste 0 -- -- 68
2019-07-23 09:00:00 18.2 6 Sur 12 Sur 0 -- -- 93
2019-07-23 08:00:00 16.9 0 Calma 5 Oeste 0 -- -- 96
2019-07-23 07:00:00 17.4 0 Calma 6 Sudoeste 0 -- -- 94
2019-07-23 06:00:00 18.1 0 Calma 5 Noroeste 0 -- -- 94
2019-07-23 05:00:00 18.8 4 Noroeste 8 Sudeste 0 -- -- 93
2019-07-23 04:00:00 19.1 5 Nordeste 9 Nordeste 0 -- -- 93
2019-07-23 03:00:00 19.2 5 Sur 12 Sudeste 0 -- -- 93
2019-07-23 02:00:00 19.3 4 Sudeste 8 Sudoeste 0 -- -- 92
2019-07-23 01:00:00 19.7 0 Calma 8 Sur 0 -- -- 92
2019-07-23 00:00:00 20.7 2 Noroeste 19 Sudeste 0 -- -- 89
2019-07-22 23:00:00 21.8 6 Sudoeste 23 Sudeste 1 -- -- 87
2019-07-22 22:00:00 23.4 10 Sudeste 17 Sudeste 0.2 -- -- 91
2019-07-22 21:00:00 23.3 2 Norte 17 Noroeste 0.4 -- -- 87
2019-07-22 20:00:00 25.3 9 Norte 22 Norte 0 -- -- 76
2019-07-22 19:00:00 26.4 9 Noroeste 20 Norte 0 -- -- 72
2019-07-22 18:00:00 26.8 9 Noroeste 27 Norte 0 -- -- 71
2019-07-22 17:00:00 27.8 9 Noroeste 21 Nordeste 0 -- -- 68
2019-07-22 16:00:00 28.8 10 Norte 26 Norte 0 -- -- 64
2019-07-22 15:00:00 28.6 12 Norte 27 Norte 0 -- -- 63
2019-07-22 14:00:00 28.3 12 Norte 26 Noroeste 0 -- -- 62
2019-07-22 13:00:00 27.4 10 Nordeste 18 Norte 0 -- -- 61
2019-07-22 12:00:00 26.6 5 Nordeste 13 Nordeste 0 -- -- 60
2019-07-22 11:00:00 24.5 3 Sudoeste 10 Sudeste 0 -- -- 68
2019-07-22 10:00:00 22.2 4 Sur 9 Sur 0 -- -- 75
2019-07-22 09:00:00 20.7 3 Sur 10 Sur 0 -- -- 80
2019-07-22 08:00:00 19.7 0 Calma 3 Sur 0 -- -- 91
2019-07-22 07:00:00 19.3 0 Calma 3 Noroeste 0 -- -- 92
2019-07-22 06:00:00 19.5 0 Calma 3 Noroeste 0 -- -- 91
2019-07-22 05:00:00 19.5 0 Calma 2 Noroeste 0 -- -- 91
2019-07-22 04:00:00 19.6 0 Calma 2 Oeste 0 -- -- 90
2019-07-22 03:00:00 19.7 0 Calma 3 Noroeste 0 -- -- 90
2019-07-22 02:00:00 19.7 0 Calma 4 Noroeste 0 -- -- 90
2019-07-22 01:00:00 19.9 0 Calma 5 Noroeste 0 -- -- 89
2019-07-22 00:00:00 20.1 0 Calma 5 Sudeste 0 -- -- 88
2019-07-21 23:00:00 20.7 0 Calma 6 Sudeste 0 -- -- 84
2019-07-21 22:00:00 20.7 6 Este 14 Norte 0 -- -- 84
2019-07-21 21:00:00 21.4 5 Norte 19 Noroeste 0 -- -- 78
2019-07-21 20:00:00 21.6 7 Norte 23 Norte 0 -- -- 76
2019-07-21 19:00:00 21.8 12 Norte 32 Norte 0 -- -- 76
2019-07-21 18:00:00 22.4 17 Noroeste 38 Noroeste 0 -- -- 74
2019-07-21 17:00:00 22.5 16 Norte 38 Noroeste 0 -- -- 75
2019-07-21 16:00:00 24.9 19 Norte 35 Norte 0 -- -- 66
2019-07-21 15:00:00 25.8 7 Norte 17 Nordeste 0 -- -- 61
2019-07-21 14:00:00 24.2 6 Norte 13 Nordeste 0 -- -- 66
2019-07-21 13:00:00 23 5 Noroeste 8 Noroeste 0 -- -- 66
2019-07-21 12:00:00 21.3 0 Calma 5 Norte 0 -- -- 76
2019-07-21 11:00:00 20 2 Noroeste 4 Noroeste 0 -- -- 82
2019-07-21 10:00:00 19.1 0 Calma 3 Sudeste 0 -- -- 86
2019-07-21 09:00:00 18.6 0 Calma 4 Noroeste 0 -- -- 88
2019-07-21 08:00:00 18.1 0 Calma 3 Oeste 0 -- -- 90
2019-07-21 07:00:00 17.9 0 Calma 3 Noroeste 0 -- -- 90
2019-07-21 06:00:00 18 0 Calma 6 Sudeste 0 -- -- 89
2019-07-21 05:00:00 17.8 2 Sudeste 4 Sur 0 -- -- 89
2019-07-21 04:00:00 18.3 2 Sudoeste 6 Sudoeste 0 -- -- 86
2019-07-21 03:00:00 19.2 0 Calma 3 Noroeste 0 -- -- 84
2019-07-21 02:00:00 19.4 0 Calma 6 Sur 0 -- -- 84
2019-07-21 01:00:00 19.6 2 Sur 8 Norte 0 -- -- 82
2019-07-21 00:00:00 19.8 5 Noroeste 21 Noroeste 0 -- -- 80